This is the latest recevied weather packets stored in our database for station/object KA8OAD-10. If no packets are shown the sender has not sent any weather packets the latest 10 day(s).
| Time | Temp. | Humidity | Pressure | Rain* | Wind** | Luminosity | Snow |
|---|---|---|---|---|---|---|---|
| 1777830753 | 17.22° C | 40% | 1013.1 hPa | 0 mm | - | 155 W/m² | - |
| 1777829551 | 17.78° C | 42% | 1013.4 hPa | 0 mm | - | 935 W/m² | - |
| 1777829251 | 17.78° C | 41% | 1013.6 hPa | 0 mm | - | 935 W/m² | - |
| 1777828950 | 17.78° C | 38% | 1013.6 hPa | 0 mm | - | 998 W/m² | - |
| 1777828353 | 17.78° C | 40% | 1013.7 hPa | 0 mm | - | 904 W/m² | - |
| 1777828053 | 17.22° C | 40% | 1013.7 hPa | 0 mm | - | 921 W/m² | - |
| 1777827751 | 17.22° C | 40% | 1013.8 hPa | 0 mm | - | 889 W/m² | - |
| 1777827149 | 16.67° C | 40% | 1013.9 hPa | 0 mm | - | 909 W/m² | - |
| 1777826552 | 16.67° C | 42% | 1014 hPa | 0 mm | - | 907 W/m² | - |
| 1777825951 | 16.67° C | 40% | 1014 hPa | 0 mm | - | 872 W/m² | - |
| 1777825651 | 16.11° C | 40% | 1014.2 hPa | 0 mm | - | 870 W/m² | - |
| 1777825350 | 16.11° C | 42% | 1014.2 hPa | 0 mm | - | 881 W/m² | - |
| 1777824753 | 15.56° C | 44% | 1014.3 hPa | 0 mm | - | 860 W/m² | - |
| 1777824453 | 15° C | 43% | 1014.4 hPa | 0 mm | - | 856 W/m² | - |
| 1777824152 | 15° C | 43% | 1014.4 hPa | 0 mm | - | 849 W/m² | - |
| 1777823550 | 14.44° C | 45% | 1014.6 hPa | 0 mm | - | 835 W/m² | - |
| 1777822352 | 13.33° C | 46% | 1014.7 hPa | 0 mm | - | 809 W/m² | - |
| 1777822051 | 12.78° C | 49% | 1014.7 hPa | 0 mm | - | 800 W/m² | - |
| 1777821751 | 12.78° C | 47% | 1014.6 hPa | 0 mm | - | 793 W/m² | - |
| 1777821150 | 12.78° C | 47% | 1014.7 hPa | 0 mm | - | 775 W/m² | - |
| 1777820853 | 12.22° C | 50% | 1014.7 hPa | 0 mm | - | 619 W/m² | - |
| 1777820552 | 12.22° C | 49% | 1014.8 hPa | 0 mm | - | 552 W/m² | - |
| 1777819952 | 11.67° C | 50% | 1014.9 hPa | 0 mm | - | 659 W/m² | - |
| 1777819651 | 11.67° C | 49% | 1014.9 hPa | 0 mm | - | 216 W/m² | - |
| 1777819351 | 11.11° C | 50% | 1014.9 hPa | 0 mm | - | 313 W/m² | - |
* Rain latest hour (hover to see other rain measurements)
** Current wind speed in m/s (hover to see current wind gust speed)